Ciudad Bolivar, Venezuela
Current Conditions -  °F | °C
As of 5:00 PM on Thursday 27 Nov 2014 (Local Time) from SVBC Reporting Station
Few Clouds Few Clouds  
Wind Chill: 88°   Ceiling: Unl
Heat Index: 98°   Visibility: 6mi
Dew Point: 75°   Wind: 17mph
Humidity: 66%   Direction: 360°N
Pressure: 29.8"   Gusts: NA
Location:  8.1°N, 63.6°W
Report Text: SVBC 272100Z 36015KT 9999 FEW010 31/24 Q1009
Loading
Personal Weather Stations






























Interactive Weather Map New forecast layout! Learn more

10-Day Weather Forecast

Advertisements
Track Severe Weather on mobile